createdAt,value
2023-05-11T00:00:27.310Z,2.72
2023-05-11T00:02:56.949Z,2.55
2023-05-11T00:05:27.119Z,2.67
2023-05-11T00:10:34.887Z,2.03
2023-05-11T00:13:02.256Z,2.00
2023-05-11T00:15:30.564Z,2.15
2023-05-11T00:20:38.067Z,2.22
2023-05-11T00:23:09.222Z,2.50
2023-05-11T00:25:36.486Z,2.42
2023-05-11T00:28:12.219Z,2.40
2023-05-11T00:30:41.715Z,1.92
2023-05-11T00:33:09.405Z,2.30
2023-05-11T00:35:38.510Z,2.05
2023-05-11T00:38:08.863Z,2.28
2023-05-11T00:45:58.959Z,1.95
2023-05-11T00:48:26.374Z,1.95
2023-05-11T00:50:54.043Z,2.17
2023-05-11T00:53:21.145Z,2.17
2023-05-11T00:55:48.484Z,2.13
2023-05-11T00:58:17.225Z,1.70
2023-05-11T01:00:44.764Z,2.20
2023-05-11T01:03:13.440Z,2.15
2023-05-11T01:06:05.600Z,2.00
2023-05-11T01:08:39.132Z,1.63
2023-05-11T01:11:15.639Z,2.47
2023-05-11T01:14:04.788Z,1.83
2023-05-11T01:16:44.425Z,2.13
2023-05-11T01:19:49.560Z,1.80
2023-05-11T01:22:51.293Z,2.50
2023-05-11T01:25:18.553Z,2.30
2023-05-11T01:27:55.036Z,2.60
2023-05-11T01:30:51.250Z,3.42
2023-05-11T01:33:25.292Z,2.83
2023-05-11T01:35:55.334Z,3.05
2023-05-11T01:38:25.370Z,2.65
2023-05-11T01:40:58.309Z,2.38
2023-05-11T01:43:28.517Z,3.10
2023-05-11T01:46:01.477Z,2.63
2023-05-11T01:48:32.651Z,2.42
2023-05-11T01:51:03.746Z,2.50
2023-05-11T02:23:19.945Z,4.03
2023-05-11T03:25:44.157Z,3.95
2023-05-11T03:58:15.892Z,5.63
2023-05-11T04:03:32.596Z,7.07
2023-05-11T04:38:19.202Z,4.97
2023-05-11T04:40:48.707Z,5.15
2023-05-11T04:43:16.333Z,5.82
2023-05-11T04:45:59.905Z,4.10
2023-05-11T05:04:39.319Z,2.70
2023-05-11T05:07:07.074Z,2.60
2023-05-11T05:52:33.445Z,2.28
2023-05-11T05:55:00.365Z,2.45
2023-05-11T05:57:37.442Z,2.00
2023-05-11T06:00:05.195Z,2.47
2023-05-11T06:02:32.208Z,2.55
2023-05-11T06:04:59.307Z,2.33
2023-05-11T06:07:27.281Z,2.42
2023-05-11T06:09:54.680Z,2.53
2023-05-11T06:12:22.183Z,2.80
2023-05-11T06:14:50.407Z,3.38
2023-05-11T06:17:17.612Z,3.17
2023-05-11T06:19:45.573Z,2.88
2023-05-11T06:22:12.753Z,3.00
2023-05-11T06:24:39.591Z,2.67
2023-05-11T06:27:07.361Z,2.47
2023-05-11T06:29:35.345Z,2.88
2023-05-11T06:32:02.332Z,3.28
2023-05-11T06:34:29.438Z,3.35
2023-05-11T06:36:59.836Z,2.75
2023-05-11T06:39:26.668Z,3.70
2023-05-11T06:41:55.348Z,3.45
2023-05-11T06:44:23.607Z,3.97
2023-05-11T06:46:50.574Z,3.45
2023-05-11T06:49:17.457Z,3.58
2023-05-11T06:51:44.622Z,4.55
2023-05-11T06:54:11.561Z,5.05
2023-05-11T06:56:38.624Z,5.07
2023-05-11T06:59:05.598Z,5.28
2023-05-11T07:01:32.620Z,5.00
2023-05-11T07:03:59.611Z,4.90
2023-05-11T07:06:26.743Z,4.00
2023-05-11T07:08:53.599Z,5.10
2023-05-11T07:11:20.490Z,5.07
2023-05-11T07:13:47.364Z,4.38
2023-05-11T07:16:14.230Z,4.25
2023-05-11T07:18:41.359Z,3.50
2023-05-11T07:21:08.378Z,3.25
2023-05-11T07:23:35.342Z,4.35
2023-05-11T07:26:04.297Z,4.53
2023-05-11T07:28:31.472Z,3.92
2023-05-11T07:30:58.405Z,4.07
2023-05-11T07:33:25.272Z,4.53
2023-05-11T07:35:52.375Z,3.80
2023-05-11T07:38:19.281Z,3.25
2023-05-11T07:40:46.885Z,3.72
2023-05-11T07:43:13.901Z,4.82
2023-05-11T07:45:40.685Z,4.13
2023-05-11T07:48:07.967Z,3.15
2023-05-11T07:50:35.158Z,4.05
2023-05-11T07:53:02.039Z,3.10
2023-05-11T07:55:30.694Z,3.92
2023-05-11T07:57:57.666Z,4.72
2023-05-11T08:00:24.580Z,4.28
2023-05-11T08:02:51.702Z,4.28
2023-05-11T08:05:20.149Z,3.78
2023-05-11T08:07:47.525Z,4.10
2023-05-11T08:10:14.390Z,4.13
2023-05-11T08:12:41.387Z,3.72
2023-05-11T08:15:08.901Z,4.45
2023-05-11T08:17:36.878Z,3.22
2023-05-11T08:20:07.426Z,4.50
2023-05-11T08:22:34.420Z,4.38
2023-05-11T08:25:01.239Z,3.60
2023-05-11T08:27:28.180Z,4.28
2023-05-11T08:29:55.556Z,3.65
2023-05-11T08:32:22.653Z,4.53
2023-05-11T08:34:49.968Z,3.97
2023-05-11T08:37:16.805Z,3.88
2023-05-11T08:39:47.634Z,3.90
2023-05-11T08:42:19.244Z,3.40
2023-05-11T08:44:48.328Z,3.63
2023-05-11T08:49:45.716Z,3.60
2023-05-11T08:52:14.255Z,4.03
2023-05-11T08:54:41.079Z,3.25
2023-05-11T08:57:09.074Z,3.35
2023-05-11T08:59:36.274Z,3.00
2023-05-11T09:02:06.154Z,3.50
2023-05-11T09:04:34.558Z,3.00
2023-05-11T09:07:01.474Z,2.85
2023-05-11T09:09:28.760Z,3.03
2023-05-11T09:11:56.099Z,6.10
2023-05-11T09:14:27.155Z,4.30
2023-05-11T09:16:54.584Z,4.68
2023-05-11T09:19:22.061Z,5.03
2023-05-11T09:21:48.985Z,5.90
2023-05-11T09:24:15.704Z,5.75
2023-05-11T09:26:42.598Z,5.55
2023-05-11T09:29:09.401Z,5.40
2023-05-11T09:31:38.481Z,6.38
2023-05-11T09:34:28.356Z,6.35
2023-05-11T09:40:14.232Z,5.85
2023-05-11T09:42:35.030Z,5.88
2023-05-11T09:45:04.353Z,5.85
2023-05-11T09:47:41.892Z,8.05
2023-05-11T09:50:26.206Z,5.63
2023-05-11T09:52:54.511Z,6.00
2023-05-11T09:55:21.799Z,5.60
2023-05-11T09:57:56.288Z,7.05
2023-05-11T10:00:25.360Z,5.57
2023-05-11T10:03:05.496Z,5.05
2023-05-11T10:05:36.999Z,5.72
2023-05-11T10:08:05.730Z,5.82
2023-05-11T10:10:34.366Z,6.63
2023-05-11T10:13:03.794Z,7.25
2023-05-11T10:15:33.467Z,5.88
2023-05-11T10:18:02.264Z,5.82
2023-05-11T10:20:29.428Z,5.43
2023-05-11T10:22:56.992Z,7.22
2023-05-11T10:44:31.473Z,5.65
2023-05-11T10:47:17.469Z,7.20
2023-05-11T10:50:05.026Z,7.13
2023-05-11T10:52:50.528Z,6.72
2023-05-11T10:55:38.205Z,5.85
2023-05-11T10:58:10.749Z,5.93
2023-05-11T11:01:02.804Z,8.45
2023-05-11T11:03:31.082Z,7.38
2023-05-11T11:06:00.720Z,6.68
2023-05-11T11:08:28.784Z,6.70
2023-05-11T11:10:56.730Z,7.22
2023-05-11T11:13:25.488Z,7.47
2023-05-11T11:15:59.608Z,6.20
2023-05-11T11:18:29.632Z,5.75
2023-05-11T11:20:58.680Z,5.68
2023-05-11T11:23:41.898Z,5.75
2023-05-11T11:26:10.329Z,6.43
2023-05-11T11:28:58.516Z,5.75
2023-05-11T11:31:31.855Z,4.85
2023-05-11T11:34:19.998Z,5.70
2023-05-11T11:36:55.957Z,8.35
2023-05-11T11:39:25.581Z,5.85
2023-05-11T11:42:07.312Z,6.63
2023-05-11T11:44:35.121Z,7.70
2023-05-11T11:47:19.897Z,9.32
2023-05-11T11:49:49.562Z,7.30
2023-05-11T11:55:56.015Z,6.47
2023-05-11T11:58:41.624Z,7.10
2023-05-11T12:01:29.678Z,6.68
2023-05-11T12:04:05.902Z,5.50
2023-05-11T12:06:43.158Z,7.72
2023-05-11T12:09:09.959Z,7.78
2023-05-11T12:11:38.337Z,8.27
2023-05-11T12:14:06.283Z,7.97
2023-05-11T12:16:33.246Z,7.30
2023-05-11T12:19:02.223Z,6.97
2023-05-11T12:21:34.763Z,9.05
2023-05-11T12:24:03.687Z,8.10
2023-05-11T12:26:32.270Z,6.93
2023-05-11T12:29:09.267Z,7.35
2023-05-11T12:31:43.298Z,7.78
2023-05-11T12:34:22.857Z,9.55
2023-05-11T12:36:51.624Z,8.27
2023-05-11T12:39:22.268Z,7.32
2023-05-11T12:41:50.185Z,6.82
2023-05-11T12:44:18.219Z,8.05
2023-05-11T12:46:47.040Z,10.85
2023-05-11T12:51:59.234Z,6.53
2023-05-11T12:54:38.409Z,6.20
2023-05-11T12:57:09.090Z,8.13
2023-05-11T12:59:41.860Z,8.38
2023-05-11T13:02:18.646Z,7.93
2023-05-11T13:04:49.514Z,10.35
2023-05-11T13:07:25.962Z,8.07
2023-05-11T13:10:00.154Z,8.25
2023-05-11T13:12:30.215Z,7.18
2023-05-11T13:15:08.944Z,6.78
2023-05-11T13:17:40.480Z,5.85
2023-05-11T13:20:29.925Z,7.07
2023-05-11T13:23:08.132Z,7.20
2023-05-11T13:25:51.601Z,5.97
2023-05-11T13:28:30.813Z,5.57
2023-05-11T13:36:22.450Z,8.02
2023-05-11T13:38:49.114Z,6.20
2023-05-11T13:41:15.837Z,6.28
2023-05-11T13:43:42.570Z,7.10
2023-05-11T13:46:09.301Z,7.32
2023-05-11T13:48:36.055Z,6.72
2023-05-11T13:51:02.839Z,6.55
2023-05-11T13:53:29.578Z,7.32
2023-05-11T13:55:56.302Z,6.90
2023-05-11T13:58:23.018Z,6.50
2023-05-11T14:01:06.618Z,6.47
2023-05-11T14:03:34.425Z,5.90
2023-05-11T14:06:01.316Z,6.60
2023-05-11T14:08:28.084Z,5.18
2023-05-11T14:10:54.816Z,6.38
2023-05-11T14:13:22.310Z,5.05
2023-05-11T14:15:49.643Z,5.47
2023-05-11T14:18:16.462Z,5.40
2023-05-11T14:20:43.464Z,5.43
2023-05-11T14:23:10.161Z,5.30
2023-05-11T14:25:36.980Z,7.07
2023-05-11T14:28:03.870Z,6.85
2023-05-11T14:30:31.142Z,6.20
2023-05-11T14:32:58.065Z,6.60
2023-05-11T14:35:24.964Z,7.22
2023-05-11T14:37:51.969Z,7.20
2023-05-11T14:40:19.497Z,7.25
2023-05-11T14:42:46.262Z,7.35
2023-05-11T14:45:13.092Z,6.47
2023-05-11T14:47:39.954Z,5.95
2023-05-11T14:50:26.424Z,7.75
2023-05-11T14:52:53.449Z,6.65
2023-05-11T14:55:20.795Z,7.45
2023-05-11T14:57:47.681Z,6.40
2023-05-11T15:00:14.966Z,6.60
2023-05-11T15:02:41.970Z,6.15
2023-05-11T15:05:09.212Z,6.25
2023-05-11T15:07:36.915Z,6.82
2023-05-11T15:10:04.554Z,6.45
2023-05-11T15:12:31.373Z,6.95
2023-05-11T15:14:58.148Z,7.18
2023-05-11T15:17:24.941Z,6.93
2023-05-11T15:19:52.271Z,7.15
2023-05-11T15:22:19.447Z,8.20
2023-05-11T15:24:46.336Z,9.05
2023-05-11T15:27:13.670Z,8.63
2023-05-11T15:29:57.306Z,7.93
2023-05-11T15:32:24.888Z,9.18
2023-05-11T15:34:59.840Z,7.53
2023-05-11T15:37:34.138Z,7.10
2023-05-11T15:40:04.680Z,7.50
2023-05-11T15:42:31.781Z,7.45
2023-05-11T15:44:58.484Z,6.35
2023-05-11T15:47:25.361Z,8.23
2023-05-11T15:49:52.822Z,8.57
2023-05-11T15:52:19.701Z,7.82
2023-05-11T15:54:46.583Z,7.80
2023-05-11T15:57:13.343Z,8.93
2023-05-11T15:59:40.489Z,8.85
2023-05-11T16:02:08.127Z,9.57
2023-05-11T16:04:34.955Z,8.52
2023-05-11T16:07:01.820Z,10.35
2023-05-11T16:09:28.846Z,7.65
2023-05-11T16:11:56.541Z,9.00
2023-05-11T16:14:23.346Z,7.35
2023-05-11T16:16:50.842Z,8.18
2023-05-11T16:19:17.635Z,6.10
2023-05-11T16:21:44.472Z,7.53
2023-05-11T16:24:11.453Z,9.07
2023-05-11T16:26:38.307Z,9.70
2023-05-11T16:29:06.172Z,9.13
2023-05-11T16:31:33.206Z,8.30
2023-05-11T16:34:00.438Z,9.38
2023-05-11T16:36:29.340Z,8.48
2023-05-11T16:38:56.165Z,8.68
2023-05-11T16:41:25.309Z,8.88
2023-05-11T16:43:52.371Z,8.25
2023-05-11T16:46:19.245Z,9.02
2023-05-11T16:48:46.154Z,8.60
2023-05-11T16:51:13.125Z,7.10
2023-05-11T16:53:40.065Z,8.07
2023-05-11T16:56:07.060Z,7.57
2023-05-11T16:58:33.987Z,8.52
2023-05-11T17:01:00.893Z,9.73
2023-05-11T17:03:28.044Z,8.73
2023-05-11T17:05:54.995Z,9.25
2023-05-11T17:08:21.936Z,9.07
2023-05-11T17:10:48.701Z,9.05
2023-05-11T17:13:15.728Z,9.45
2023-05-11T17:15:43.108Z,8.48
2023-05-11T17:18:10.181Z,12.00
2023-05-11T17:20:37.524Z,8.98
2023-05-11T17:23:06.148Z,8.07
2023-05-11T17:25:36.413Z,8.45
2023-05-11T17:28:03.247Z,9.13
2023-05-11T17:30:40.357Z,8.63
2023-05-11T17:33:14.820Z,9.18
2023-05-11T17:35:44.765Z,7.32
2023-05-11T17:38:11.648Z,7.95
2023-05-11T17:40:38.530Z,8.45
2023-05-11T17:43:05.359Z,8.40
2023-05-11T17:45:32.160Z,9.20
2023-05-11T17:47:59.148Z,7.80
2023-05-11T17:50:26.162Z,10.20
2023-05-11T17:52:53.619Z,9.93
2023-05-11T17:55:25.534Z,9.02
2023-05-11T17:57:52.442Z,8.38
2023-05-11T18:00:19.942Z,10.82
2023-05-11T18:02:51.570Z,7.10
2023-05-11T18:05:19.405Z,8.20
2023-05-11T18:07:46.156Z,7.80
2023-05-11T18:10:13.052Z,8.23
2023-05-11T18:12:39.939Z,7.15
2023-05-11T18:15:07.352Z,8.85
2023-05-11T18:17:34.604Z,8.25
2023-05-11T18:20:01.550Z,8.88
2023-05-11T18:22:30.160Z,8.20
2023-05-11T18:24:57.152Z,9.15
2023-05-11T18:27:23.999Z,9.02
2023-05-11T18:29:50.820Z,8.95
2023-05-11T18:32:23.052Z,8.73
2023-05-11T18:34:50.725Z,9.90
2023-05-11T18:40:48.578Z,10.25
2023-05-11T18:46:00.203Z,9.55
2023-05-11T18:48:47.542Z,12.10
2023-05-11T18:51:25.689Z,10.70
2023-05-11T18:53:53.314Z,8.45
2023-05-11T18:56:20.756Z,9.52
2023-05-11T18:58:48.808Z,10.30
2023-05-11T19:01:16.842Z,10.07
2023-05-11T19:03:44.227Z,9.07
2023-05-11T19:06:12.092Z,9.95
2023-05-11T19:08:39.284Z,9.32
2023-05-11T19:11:07.958Z,7.93
2023-05-11T19:13:36.646Z,8.18
2023-05-11T19:16:04.880Z,9.93
2023-05-11T19:18:35.863Z,9.52
2023-05-11T19:21:05.444Z,9.43
2023-05-11T19:23:33.066Z,9.30
2023-05-11T19:26:00.590Z,7.70
2023-05-11T19:28:29.170Z,8.70
2023-05-11T19:31:04.940Z,8.38
2023-05-11T19:33:32.915Z,9.45
2023-05-11T19:35:59.855Z,9.23
2023-05-11T19:38:27.939Z,7.68
2023-05-11T19:43:35.382Z,8.70
2023-05-11T19:46:05.551Z,7.82
2023-05-11T19:48:32.497Z,8.77
2023-05-11T19:50:59.397Z,9.48
2023-05-11T19:53:27.366Z,9.07
2023-05-11T19:55:54.845Z,8.18
2023-05-11T19:58:22.527Z,8.45
2023-05-11T20:00:50.179Z,7.65
2023-05-11T20:03:17.660Z,10.02
2023-05-11T20:05:44.573Z,9.50
2023-05-11T20:08:11.633Z,10.93
2023-05-11T20:10:38.773Z,10.07
2023-05-11T20:13:08.202Z,8.95
2023-05-11T20:15:35.113Z,10.02
2023-05-11T20:18:05.555Z,9.60
2023-05-11T20:20:33.555Z,10.05
2023-05-11T20:23:01.150Z,7.93
2023-05-11T20:25:28.414Z,8.80
2023-05-11T20:30:36.973Z,7.30
2023-05-11T20:35:34.585Z,7.43
2023-05-11T20:38:02.498Z,8.00
2023-05-11T20:40:30.547Z,7.72
2023-05-11T20:42:57.353Z,7.75
2023-05-11T20:45:24.264Z,6.95
2023-05-11T20:47:51.123Z,10.35
2023-05-11T20:50:18.398Z,8.43
2023-05-11T20:52:45.541Z,7.95
2023-05-11T20:55:12.364Z,7.22
2023-05-11T20:57:39.168Z,7.60
2023-05-11T21:00:11.212Z,7.05
2023-05-11T21:02:38.824Z,7.25
2023-05-11T22:31:06.573Z,7.55
2023-05-11T22:36:22.702Z,7.55
2023-05-11T22:41:41.453Z,8.15
2023-05-11T23:37:56.299Z,6.82
2023-05-11T23:48:26.388Z,4.85
